createdAt,value
2019-03-22T00:00:16.293Z,4.72
2019-03-22T00:02:47.126Z,4.65
2019-03-22T00:05:16.293Z,5.00
2019-03-22T00:07:45.450Z,4.17
2019-03-22T00:10:14.609Z,4.08
2019-03-22T00:12:43.770Z,4.55
2019-03-22T00:15:12.913Z,8.00
2019-03-22T00:17:42.074Z,8.85
2019-03-22T00:20:11.291Z,7.95
2019-03-22T00:22:40.454Z,9.10
2019-03-22T00:25:09.694Z,16.00
2019-03-22T00:27:38.854Z,5.75
2019-03-22T00:30:10.007Z,4.75
2019-03-22T00:32:39.158Z,4.08
2019-03-22T00:35:08.372Z,3.87
2019-03-22T00:37:37.521Z,4.30
2019-03-22T00:40:07.598Z,3.30
2019-03-22T00:42:36.759Z,3.77
2019-03-22T00:45:06.734Z,3.27
2019-03-22T00:47:35.889Z,3.80
2019-03-22T00:50:07.030Z,3.70
2019-03-22T00:52:36.180Z,4.10
2019-03-22T00:55:05.315Z,3.70
2019-03-22T00:57:34.465Z,3.72
2019-03-22T01:00:12.158Z,3.10
2019-03-22T01:02:41.671Z,3.55
2019-03-22T01:05:10.815Z,3.47
2019-03-22T01:07:39.975Z,3.62
2019-03-22T01:10:10.943Z,3.77
2019-03-22T01:12:40.098Z,3.60
2019-03-22T01:15:10.383Z,3.70
2019-03-22T01:17:39.606Z,3.58
2019-03-22T01:20:09.925Z,3.17
2019-03-22T01:22:39.081Z,3.20
2019-03-22T01:25:09.458Z,3.00
2019-03-22T01:27:40.617Z,3.90
2019-03-22T01:30:14.750Z,3.37
2019-03-22T01:35:12.286Z,3.35
2019-03-22T01:37:41.439Z,3.67
2019-03-22T01:40:11.728Z,3.35
2019-03-22T01:42:40.877Z,3.60
2019-03-22T01:45:14.688Z,3.87
2019-03-22T01:47:43.829Z,3.70
2019-03-22T01:50:16.219Z,3.75
2019-03-22T01:52:46.422Z,3.98
2019-03-22T01:55:15.555Z,2.95
2019-03-22T01:57:53.244Z,3.25
2019-03-22T02:00:16.693Z,3.17
2019-03-22T02:02:45.855Z,3.05
2019-03-22T02:05:14.995Z,3.60
2019-03-22T02:07:44.382Z,3.45
2019-03-22T02:10:13.523Z,3.22
2019-03-22T02:12:42.674Z,3.37
2019-03-22T02:15:12.459Z,3.72
2019-03-22T02:17:41.965Z,3.58
2019-03-22T02:20:13.813Z,3.20
2019-03-22T02:22:42.962Z,3.83
2019-03-22T02:25:12.114Z,3.60
2019-03-22T02:27:41.737Z,2.95
2019-03-22T02:30:15.643Z,3.60
2019-03-22T02:32:44.818Z,3.25
2019-03-22T02:35:27.554Z,3.55
2019-03-22T02:37:44.817Z,3.10
2019-03-22T02:40:14.140Z,3.55
2019-03-22T02:42:43.498Z,3.33
2019-03-22T02:45:13.920Z,3.72
2019-03-22T02:47:43.115Z,3.47
2019-03-22T02:50:18.470Z,3.27
2019-03-22T02:52:44.438Z,3.47
2019-03-22T02:55:13.967Z,3.70
2019-03-22T02:57:43.181Z,3.60
2019-03-22T03:00:16.693Z,3.40
2019-03-22T03:02:46.102Z,3.67
2019-03-22T03:05:15.322Z,3.77
2019-03-22T03:07:44.547Z,3.67
2019-03-22T03:10:15.341Z,3.65
2019-03-22T03:12:44.665Z,3.40
2019-03-22T03:15:15.541Z,3.55
2019-03-22T03:17:44.771Z,3.27
2019-03-22T03:20:15.714Z,3.77
2019-03-22T03:22:44.875Z,3.67
2019-03-22T03:25:14.032Z,4.40
2019-03-22T03:27:43.187Z,3.35
2019-03-22T03:30:19.782Z,3.75
2019-03-22T03:32:49.121Z,3.47
2019-03-22T03:35:18.873Z,3.40
2019-03-22T03:37:48.076Z,3.62
2019-03-22T03:40:18.355Z,3.45
2019-03-22T03:42:48.642Z,3.83
2019-03-22T03:45:30.469Z,3.83
2019-03-22T03:48:04.186Z,3.40
2019-03-22T03:50:34.410Z,3.45
2019-03-22T03:53:03.731Z,3.40
2019-03-22T03:55:34.015Z,3.30
2019-03-22T03:58:03.227Z,3.30
2019-03-22T04:00:32.368Z,3.55
2019-03-22T04:03:01.530Z,3.50
2019-03-22T04:05:30.672Z,4.10
2019-03-22T04:07:59.830Z,3.70
2019-03-22T04:10:28.966Z,3.70
2019-03-22T04:12:58.121Z,3.47
2019-03-22T04:15:27.265Z,3.33
2019-03-22T04:17:56.423Z,3.17
2019-03-22T04:20:25.639Z,3.45
2019-03-22T04:22:54.795Z,3.20
2019-03-22T04:25:24.000Z,2.90
2019-03-22T04:27:53.154Z,3.58
2019-03-22T04:30:22.310Z,3.10
2019-03-22T04:32:51.460Z,3.27
2019-03-22T04:35:20.600Z,2.77
2019-03-22T04:37:49.753Z,3.00
2019-03-22T04:40:24.198Z,2.83
2019-03-22T04:45:23.037Z,3.15
2019-03-22T04:48:04.147Z,3.25
2019-03-22T04:50:34.158Z,3.25
2019-03-22T04:53:03.303Z,2.95
2019-03-22T04:55:33.072Z,3.60
2019-03-22T04:58:02.307Z,3.20
2019-03-22T05:00:31.447Z,3.25
2019-03-22T05:03:00.677Z,3.33
2019-03-22T05:05:29.803Z,3.67
2019-03-22T05:07:58.953Z,3.72
2019-03-22T05:10:28.091Z,3.80
2019-03-22T05:12:57.311Z,4.28
2019-03-22T05:15:26.450Z,3.75
2019-03-22T05:17:56.773Z,3.80
2019-03-22T05:20:25.987Z,4.33
2019-03-22T05:22:55.671Z,4.47
2019-03-22T05:25:24.812Z,4.10
2019-03-22T05:27:53.977Z,4.30
2019-03-22T05:30:39.609Z,4.00
2019-03-22T05:33:08.767Z,3.50
2019-03-22T05:35:37.903Z,3.20
2019-03-22T05:38:07.050Z,3.77
2019-03-22T05:40:36.183Z,3.55
2019-03-22T05:43:05.342Z,3.95
2019-03-22T05:45:34.524Z,3.98
2019-03-22T05:48:03.694Z,4.58
2019-03-22T05:50:32.827Z,3.85
2019-03-22T05:53:01.967Z,4.58
2019-03-22T05:55:31.116Z,4.62
2019-03-22T05:58:00.247Z,4.20
2019-03-22T06:00:29.399Z,4.50
2019-03-22T06:02:58.528Z,4.10
2019-03-22T06:05:27.681Z,4.25
2019-03-22T06:07:56.805Z,3.85
2019-03-22T06:10:25.955Z,3.98
2019-03-22T06:12:55.078Z,3.85
2019-03-22T06:15:24.225Z,3.98
2019-03-22T06:17:53.357Z,3.52
2019-03-22T06:20:22.570Z,3.27
2019-03-22T06:22:51.702Z,3.40
2019-03-22T06:25:20.930Z,3.47
2019-03-22T06:27:50.127Z,3.40
2019-03-22T06:30:19.274Z,3.00
2019-03-22T06:32:48.895Z,3.45
2019-03-22T06:35:18.645Z,3.30
2019-03-22T06:37:47.779Z,3.40
2019-03-22T06:40:16.928Z,3.67
2019-03-22T06:42:46.053Z,3.25
2019-03-22T06:45:15.203Z,3.10
2019-03-22T06:47:44.351Z,3.35
2019-03-22T06:50:13.493Z,2.83
2019-03-22T06:52:42.624Z,2.98
2019-03-22T06:55:11.770Z,3.02
2019-03-22T06:57:40.917Z,3.40
2019-03-22T07:00:11.609Z,3.45
2019-03-22T07:02:40.738Z,3.42
2019-03-22T07:05:09.893Z,3.42
2019-03-22T07:07:39.025Z,3.90
2019-03-22T07:10:08.354Z,3.70
2019-03-22T07:12:37.500Z,4.12
2019-03-22T07:15:07.722Z,3.70
2019-03-22T07:17:36.863Z,4.20
2019-03-22T07:20:06.306Z,4.53
2019-03-22T07:22:35.451Z,4.03
2019-03-22T07:25:06.606Z,4.15
2019-03-22T07:27:35.740Z,4.10
2019-03-22T07:30:17.857Z,4.25
2019-03-22T07:32:39.123Z,4.10
2019-03-22T07:35:08.290Z,3.70
2019-03-22T07:37:37.422Z,4.00
2019-03-22T07:40:08.982Z,3.60
2019-03-22T07:42:38.167Z,3.65
2019-03-22T07:45:08.782Z,3.87
2019-03-22T07:47:37.989Z,3.72
2019-03-22T07:50:08.903Z,3.80
2019-03-22T07:52:39.419Z,3.67
2019-03-22T07:55:09.048Z,3.37
2019-03-22T07:57:38.318Z,3.80
2019-03-22T08:00:10.172Z,4.00
2019-03-22T08:02:45.082Z,3.70
2019-03-22T08:05:14.232Z,3.30
2019-03-22T08:07:43.374Z,3.70
2019-03-22T08:10:12.540Z,3.77
2019-03-22T08:12:42.645Z,3.77
2019-03-22T08:15:15.059Z,3.95
2019-03-22T08:17:44.186Z,3.33
2019-03-22T08:20:13.534Z,3.80
2019-03-22T08:22:42.736Z,3.50
2019-03-22T08:25:12.171Z,3.45
2019-03-22T08:27:41.367Z,3.40
2019-03-22T08:30:10.531Z,3.67
2019-03-22T08:32:39.653Z,4.05
2019-03-22T08:35:08.827Z,4.30
2019-03-22T08:37:38.014Z,4.25
2019-03-22T08:40:07.242Z,4.10
2019-03-22T08:42:37.474Z,3.80
2019-03-22T08:45:11.284Z,3.98
2019-03-22T08:47:39.520Z,3.33
2019-03-22T08:50:08.795Z,3.30
2019-03-22T08:52:38.603Z,3.80
2019-03-22T08:55:07.854Z,3.50
2019-03-22T08:57:37.074Z,3.75
2019-03-22T09:00:08.662Z,3.75
2019-03-22T09:02:37.852Z,3.72
2019-03-22T09:05:07.071Z,3.77
2019-03-22T09:07:37.618Z,3.52
2019-03-22T09:10:10.850Z,3.75
2019-03-22T09:12:39.971Z,4.37
2019-03-22T09:15:10.349Z,4.50
2019-03-22T09:17:39.496Z,4.33
2019-03-22T09:20:10.118Z,4.87
2019-03-22T09:22:39.307Z,4.45
2019-03-22T09:25:08.508Z,4.97
2019-03-22T09:27:38.071Z,5.10
2019-03-22T09:30:14.551Z,4.60
2019-03-22T09:32:44.053Z,4.87
2019-03-22T09:35:14.058Z,5.22
2019-03-22T09:37:43.374Z,5.25
2019-03-22T09:40:12.552Z,5.20
2019-03-22T09:42:41.775Z,4.92
2019-03-22T09:45:14.093Z,5.17
2019-03-22T09:47:41.818Z,5.20
2019-03-22T09:50:12.363Z,5.87
2019-03-22T09:52:41.675Z,5.25
2019-03-22T09:55:13.958Z,5.50
2019-03-22T09:57:42.540Z,5.60
2019-03-22T10:00:29.402Z,5.40
2019-03-22T10:02:58.845Z,5.35
2019-03-22T10:05:28.005Z,5.75
2019-03-22T10:07:57.206Z,5.75
2019-03-22T10:10:26.402Z,5.30
2019-03-22T10:12:55.587Z,4.97
2019-03-22T10:15:24.752Z,5.70
2019-03-22T10:17:53.906Z,5.60
2019-03-22T10:20:23.576Z,5.58
2019-03-22T10:22:52.758Z,5.85
2019-03-22T10:25:21.901Z,6.30
2019-03-22T10:27:51.051Z,6.00
2019-03-22T10:30:20.220Z,5.75
2019-03-22T10:32:49.370Z,5.75
2019-03-22T10:35:26.043Z,6.00
2019-03-22T10:37:49.443Z,6.10
2019-03-22T10:40:18.567Z,6.58
2019-03-22T10:42:47.731Z,6.78
2019-03-22T10:45:16.902Z,6.33
2019-03-22T10:47:47.050Z,6.30
2019-03-22T10:50:16.189Z,6.12
2019-03-22T10:52:48.104Z,6.45
2019-03-22T10:55:29.215Z,6.62
2019-03-22T10:57:47.115Z,6.62
2019-03-22T11:00:17.475Z,6.90
2019-03-22T11:02:46.638Z,6.15
2019-03-22T11:05:15.769Z,6.17
2019-03-22T11:07:44.946Z,5.67
2019-03-22T11:10:14.152Z,6.65
2019-03-22T11:12:43.471Z,5.90
2019-03-22T11:15:13.177Z,5.85
2019-03-22T11:17:43.404Z,6.30
2019-03-22T11:20:14.994Z,6.20
2019-03-22T11:22:44.138Z,6.72
2019-03-22T11:25:13.277Z,6.25
2019-03-22T11:27:42.501Z,6.03
2019-03-22T11:30:17.762Z,6.40
2019-03-22T11:32:46.991Z,5.33
2019-03-22T11:35:16.135Z,5.28
2019-03-22T11:37:45.279Z,5.62
2019-03-22T11:40:15.862Z,4.65
2019-03-22T11:42:45.006Z,5.03
2019-03-22T11:45:16.886Z,5.20
2019-03-22T11:47:46.127Z,4.87
2019-03-22T11:50:15.367Z,5.37
2019-03-22T11:52:44.535Z,4.97
2019-03-22T11:55:14.117Z,5.17
2019-03-22T11:57:43.293Z,5.70
2019-03-22T12:00:17.799Z,4.87
2019-03-22T12:02:48.026Z,4.92
2019-03-22T12:05:17.159Z,4.30
2019-03-22T12:07:46.330Z,4.70
2019-03-22T12:10:19.879Z,4.70
2019-03-22T12:12:49.090Z,4.08
2019-03-22T12:15:22.077Z,3.72
2019-03-22T12:17:51.239Z,5.03
2019-03-22T12:20:23.909Z,4.30
2019-03-22T12:22:53.338Z,4.05
2019-03-22T12:25:24.015Z,4.90
2019-03-22T12:27:53.306Z,4.92
2019-03-22T12:30:22.455Z,4.62
2019-03-22T12:32:51.649Z,4.40
2019-03-22T12:35:20.850Z,4.40
2019-03-22T12:37:50.011Z,4.65
2019-03-22T12:40:19.978Z,3.62
2019-03-22T12:42:49.215Z,4.65
2019-03-22T12:45:29.951Z,4.10
2019-03-22T12:48:00.178Z,3.77
2019-03-22T12:50:29.313Z,3.90
2019-03-22T12:53:01.503Z,4.08
2019-03-22T12:55:29.305Z,4.00
2019-03-22T12:57:59.499Z,4.28
2019-03-22T13:00:29.113Z,3.75
2019-03-22T13:02:58.259Z,4.08
2019-03-22T13:05:27.414Z,3.65
2019-03-22T13:07:56.576Z,3.80
2019-03-22T13:10:27.826Z,3.85
2019-03-22T13:12:56.961Z,3.52
2019-03-22T13:15:26.125Z,3.72
2019-03-22T13:17:55.262Z,3.50
2019-03-22T13:20:24.418Z,3.65
2019-03-22T13:22:53.567Z,3.95
2019-03-22T13:25:22.728Z,3.40
2019-03-22T13:27:51.871Z,3.50
2019-03-22T13:30:34.286Z,3.45
2019-03-22T13:33:03.650Z,3.60
2019-03-22T13:35:36.864Z,3.72
2019-03-22T13:38:03.667Z,3.33
2019-03-22T13:40:32.815Z,3.60
2019-03-22T13:43:01.955Z,3.98
2019-03-22T13:45:31.117Z,3.55
2019-03-22T13:48:00.274Z,4.45
2019-03-22T13:50:29.498Z,4.22
2019-03-22T13:52:58.638Z,4.45
2019-03-22T13:55:27.806Z,3.75
2019-03-22T13:57:56.942Z,4.10
2019-03-22T14:00:26.104Z,3.72
2019-03-22T14:03:02.777Z,3.83
2019-03-22T14:05:26.093Z,3.60
2019-03-22T14:07:55.241Z,3.62
2019-03-22T14:10:35.717Z,3.50
2019-03-22T14:13:06.002Z,4.20
2019-03-22T14:15:35.160Z,3.05
2019-03-22T14:18:04.579Z,3.98
2019-03-22T14:20:33.730Z,3.95
2019-03-22T14:23:02.870Z,3.98
2019-03-22T14:25:32.017Z,4.22
2019-03-22T14:28:01.158Z,4.50
2019-03-22T14:30:30.319Z,4.12
2019-03-22T14:32:59.466Z,4.12
2019-03-22T14:35:28.686Z,4.10
2019-03-22T14:37:57.822Z,4.60
2019-03-22T14:40:26.998Z,4.58
2019-03-22T14:42:56.135Z,4.62
2019-03-22T14:45:25.287Z,4.45
2019-03-22T14:47:54.426Z,3.95
2019-03-22T14:50:23.602Z,4.20
2019-03-22T14:52:53.528Z,4.30
2019-03-22T14:55:22.864Z,4.45
2019-03-22T14:57:52.409Z,4.60
2019-03-22T15:00:21.766Z,5.60
2019-03-22T15:02:50.911Z,4.33
2019-03-22T15:05:21.060Z,4.37
2019-03-22T15:07:50.210Z,5.05
2019-03-22T15:10:19.333Z,5.03
2019-03-22T15:12:48.758Z,4.90
2019-03-22T15:15:19.605Z,4.70
2019-03-22T15:18:02.447Z,5.15
2019-03-22T15:20:36.720Z,5.42
2019-03-22T15:23:23.671Z,5.08
2019-03-22T15:26:00.141Z,5.72
2019-03-22T15:28:46.388Z,5.58
2019-03-22T15:31:33.930Z,5.17
2019-03-22T15:34:10.844Z,5.40
2019-03-22T15:36:44.346Z,5.55
2019-03-22T15:39:31.456Z,4.80
2019-03-22T15:42:00.788Z,4.87
2019-03-22T15:44:29.934Z,4.30
2019-03-22T15:46:59.095Z,4.78
2019-03-22T15:49:28.239Z,4.50
2019-03-22T15:51:57.396Z,4.50
2019-03-22T15:54:26.531Z,4.67
2019-03-22T15:56:55.688Z,4.22
2019-03-22T15:59:24.822Z,4.90
2019-03-22T16:01:53.978Z,4.15
2019-03-22T16:04:23.122Z,4.72
2019-03-22T16:06:52.283Z,4.60
2019-03-22T16:09:21.426Z,4.45
2019-03-22T16:11:50.587Z,4.25
2019-03-22T16:14:19.730Z,4.62
2019-03-22T16:16:48.879Z,4.72
2019-03-22T16:19:18.025Z,4.35
2019-03-22T16:21:47.199Z,4.55
2019-03-22T16:24:16.339Z,4.10
2019-03-22T16:26:45.494Z,5.00
2019-03-22T16:29:14.653Z,4.35
2019-03-22T16:31:43.790Z,3.95
2019-03-22T16:34:12.954Z,4.30
2019-03-22T16:36:42.093Z,4.05
2019-03-22T16:39:11.271Z,4.50
2019-03-22T16:41:40.414Z,3.92
2019-03-22T16:44:10.246Z,4.03
2019-03-22T16:46:39.399Z,3.98
2019-03-22T16:49:08.558Z,4.03
2019-03-22T16:51:37.711Z,5.03
2019-03-22T16:54:06.978Z,4.35
2019-03-22T16:56:36.116Z,4.50
2019-03-22T16:59:05.271Z,4.60
2019-03-22T17:01:34.411Z,4.90
2019-03-22T17:04:04.669Z,4.60
2019-03-22T17:06:33.998Z,3.90
2019-03-22T17:09:03.978Z,4.47
2019-03-22T17:11:33.150Z,4.05
2019-03-22T17:14:03.375Z,3.75
2019-03-22T17:16:32.512Z,4.53
2019-03-22T17:19:01.661Z,4.30
2019-03-22T17:21:30.825Z,4.75
2019-03-22T17:23:59.983Z,4.62
2019-03-22T17:26:29.153Z,4.78
2019-03-22T17:28:59.373Z,4.58
2019-03-22T17:31:30.182Z,4.60
2019-03-22T17:33:59.389Z,4.20
2019-03-22T17:36:28.538Z,4.50
2019-03-22T17:38:58.654Z,4.70
2019-03-22T17:41:28.175Z,3.90
2019-03-22T17:43:57.454Z,4.15
2019-03-22T17:46:27.059Z,4.10
2019-03-22T17:48:56.210Z,4.00
2019-03-22T17:51:26.250Z,3.58
2019-03-22T17:53:56.633Z,4.40
2019-03-22T17:56:25.779Z,4.10
2019-03-22T17:58:54.996Z,4.70
2019-03-22T18:01:24.142Z,4.30
2019-03-22T18:03:53.303Z,4.60
2019-03-22T18:06:22.447Z,3.20
2019-03-22T18:08:51.602Z,2.40
2019-03-22T18:11:20.769Z,2.80
2019-03-22T18:13:49.934Z,3.00
2019-03-22T18:16:19.066Z,3.05
2019-03-22T18:18:48.222Z,2.90
2019-03-22T18:21:17.360Z,3.02
2019-03-22T18:23:46.505Z,2.92
2019-03-22T18:26:15.686Z,2.65
2019-03-22T18:28:44.866Z,2.87
2019-03-22T18:31:14.006Z,2.65
2019-03-22T18:33:43.141Z,3.08
2019-03-22T18:36:12.311Z,3.65
2019-03-22T18:38:41.580Z,3.58
2019-03-22T18:41:10.735Z,3.30
2019-03-22T18:43:39.879Z,4.53
2019-03-22T18:46:09.039Z,3.87
2019-03-22T18:48:38.184Z,3.50
2019-03-22T18:51:07.348Z,3.83
2019-03-22T18:53:37.475Z,3.80
2019-03-22T18:56:06.634Z,3.08
2019-03-22T18:58:35.775Z,2.83
2019-03-22T19:01:04.932Z,2.90
2019-03-22T19:03:35.253Z,2.92
2019-03-22T19:06:04.440Z,2.83
2019-03-22T19:08:33.649Z,2.72
2019-03-22T19:11:03.124Z,2.60
2019-03-22T19:13:32.273Z,2.80
2019-03-22T19:16:01.422Z,2.70
2019-03-22T19:18:32.651Z,2.90
2019-03-22T19:21:01.431Z,3.00
2019-03-22T19:23:30.562Z,2.85
2019-03-22T19:25:59.722Z,2.95
2019-03-22T19:28:28.872Z,3.00
2019-03-22T19:31:00.035Z,2.75
2019-03-22T19:33:29.521Z,3.10
2019-03-22T19:35:58.693Z,2.62
2019-03-22T19:38:27.872Z,3.12
2019-03-22T19:40:57.093Z,3.00
2019-03-22T19:43:26.237Z,2.80
2019-03-22T19:45:55.403Z,3.10
2019-03-22T19:48:25.819Z,3.35
2019-03-22T19:50:55.034Z,3.92
2019-03-22T19:53:24.204Z,4.20
2019-03-22T19:55:53.370Z,4.28
2019-03-22T19:58:22.835Z,4.30
2019-03-22T20:00:53.059Z,5.20
2019-03-22T20:03:22.344Z,4.58
2019-03-22T20:05:51.610Z,4.90
2019-03-22T20:08:20.850Z,4.70
2019-03-22T20:10:50.006Z,5.40
2019-03-22T20:13:19.161Z,4.97
2019-03-22T20:15:48.318Z,4.80
2019-03-22T20:18:17.454Z,4.75
2019-03-22T20:20:46.706Z,4.78
2019-03-22T20:23:15.842Z,4.97
2019-03-22T20:25:45.011Z,5.03
2019-03-22T20:28:14.163Z,4.90
2019-03-22T20:30:43.319Z,5.10
2019-03-22T20:33:12.462Z,5.17
2019-03-22T20:35:41.728Z,4.70
2019-03-22T20:38:10.870Z,5.35
2019-03-22T20:40:40.023Z,4.72
2019-03-22T20:43:09.173Z,4.85
2019-03-22T20:45:38.346Z,4.92
2019-03-22T20:48:07.486Z,4.90
2019-03-22T20:50:36.643Z,5.17
2019-03-22T20:53:05.857Z,4.67
2019-03-22T20:55:35.018Z,5.05
2019-03-22T20:58:04.186Z,5.30
2019-03-22T21:00:33.322Z,4.80
2019-03-22T21:03:02.479Z,4.65
2019-03-22T21:05:31.700Z,5.10
2019-03-22T21:08:00.888Z,4.97
2019-03-22T21:10:30.025Z,5.05
2019-03-22T21:12:59.196Z,4.80
2019-03-22T21:15:28.346Z,4.65
2019-03-22T21:17:57.502Z,4.67
2019-03-22T21:20:26.645Z,5.00
2019-03-22T21:22:55.814Z,4.15
2019-03-22T21:25:24.969Z,4.97
2019-03-22T21:27:54.118Z,5.08
2019-03-22T21:30:23.268Z,4.70
2019-03-22T21:32:52.415Z,4.67
2019-03-22T21:35:22.706Z,4.80
2019-03-22T21:37:52.403Z,4.53
2019-03-22T21:40:21.539Z,4.87
2019-03-22T21:42:50.730Z,5.28
2019-03-22T21:45:19.862Z,4.78
2019-03-22T21:47:49.014Z,5.00
2019-03-22T21:50:18.279Z,4.60
2019-03-22T21:52:47.430Z,4.35
2019-03-22T21:55:16.572Z,4.90
2019-03-22T21:57:45.731Z,4.53
2019-03-22T22:00:15.738Z,4.33
2019-03-22T22:02:44.890Z,4.70
2019-03-22T22:05:14.032Z,4.45
2019-03-22T22:07:43.181Z,4.85
2019-03-22T22:10:12.318Z,4.97
2019-03-22T22:12:41.517Z,4.97
2019-03-22T22:15:11.626Z,4.92
2019-03-22T22:17:41.118Z,5.08
2019-03-22T22:20:10.508Z,4.12
2019-03-22T22:22:39.725Z,5.12
2019-03-22T22:25:09.847Z,5.08
2019-03-22T22:27:39.002Z,5.08
2019-03-22T22:30:11.950Z,5.12
2019-03-22T22:32:41.133Z,5.20
2019-03-22T22:35:10.274Z,4.75
2019-03-22T22:37:39.429Z,4.67
2019-03-22T22:40:10.661Z,5.03
2019-03-22T22:42:39.820Z,4.55
2019-03-22T22:45:10.095Z,4.47
2019-03-22T22:47:39.319Z,5.50
2019-03-22T22:50:10.194Z,4.80
2019-03-22T22:52:39.350Z,5.10
2019-03-22T22:55:08.855Z,5.40
2019-03-22T22:57:38.478Z,4.90
2019-03-22T23:00:13.628Z,4.40
2019-03-22T23:02:43.694Z,4.72
2019-03-22T23:05:12.843Z,4.90
2019-03-22T23:07:41.994Z,4.72
2019-03-22T23:10:12.736Z,5.10
2019-03-22T23:12:43.666Z,4.60
2019-03-22T23:15:12.807Z,4.17
2019-03-22T23:17:41.947Z,4.28
2019-03-22T23:20:11.118Z,4.20
2019-03-22T23:22:40.274Z,4.17
2019-03-22T23:25:09.487Z,4.33
2019-03-22T23:27:38.691Z,4.22
2019-03-22T23:30:10.728Z,4.30
2019-03-22T23:32:41.223Z,4.80
2019-03-22T23:35:10.417Z,4.72
2019-03-22T23:37:39.626Z,4.70
2019-03-22T23:40:08.848Z,4.03
2019-03-22T23:42:37.990Z,4.08
2019-03-22T23:45:08.385Z,4.70
2019-03-22T23:47:37.594Z,4.17
2019-03-22T23:50:09.606Z,4.70
2019-03-22T23:52:38.741Z,4.53
2019-03-22T23:55:07.885Z,4.90
2019-03-22T23:57:37.072Z,4.15
